Hlavní strana
METAR-TAF:

METAR-TAF

Letiště :

Brønnøysund, Norsko

zeměpisná šířka: 65-28N, zeměpisná délka: 012-13E, výška: 0 m

Aktuální stav počasí

Zpráva byla vytvořena před 37 minutami, v 01:50 UTC
Západní vítr 16 kt
Teplota 7°C
Vlhkost vzduchu 93%
Tlak 1016 hPa
Viditelnost 10 km a více

METAR: ENBN 190150Z AUTO 26016KT 9999NDV FEW020/// OVC033/// 07/06 Q1016

Čas: 04:27 (02:27 UTC)

Předpověď počasí

Zpráva byla vytvořena před 12 hodinami a 27 minutami, v 14:00 UTC
Předpověď platná od 18 v 15 UTC do 18 v 19 UTC
Západojihozápadní vítr 15 kt s nárazy do 25 kt
Viditelnost 10 km a více
Skoro jasno ve výšce 1500 ft, Vertikální cumulus.
Oblačno až skoro zataženo ve výšce 3000 ft
slabé dešťové přeháňky
Dočasný
od 18 v 15 UTC do 18 v 19 UTC
Západojihozápadní vítr 25 kt s nárazy do 40 kt
Skoro jasno ve výšce 800 ft
Oblačno až skoro zataženo ve výšce 1400 ft, Cumulonimbus.
dešťové přeháňky

TAF: ENBN 181400Z 1815/1819 24015G25KT 9999 -SHRA FEW015TCU BKN030 TEMPO 1815/1819 24025G40KT SHRA FEW008 BKN014CB

Stav a předpovědi počasí z více než 4 000 letišť (zprávy METAR a TAF).

Červené a žluté tečky na mapě představují dostupné meteorologické stanice.

Když kurzor umístíte na tečku, zobrazí se název stanice.

Pak kliknutím zobrazíte stav a předpověď počasí.

Chcete-li změnit mapu, kliknutím na zelené tlačítko se znaménkem +mapu přiblížíte, kliknutím na zelené tlačítko se znaménkem – mapu oddálíte a kliknutím na zelené šipky přejdete na sousední mapy.


METAR-TAF: